createdAt,value
2023-02-19T00:00:23.075Z,100984.44
2023-02-19T00:02:51.906Z,100986.31
2023-02-19T00:05:19.715Z,100982.78
2023-02-19T00:07:47.495Z,100990.81
2023-02-19T00:10:15.220Z,100989.13
2023-02-19T00:12:42.976Z,100998.84
2023-02-19T00:15:10.749Z,100998.03
2023-02-19T00:17:38.512Z,101006.06
2023-02-19T00:20:06.342Z,101007.03
2023-02-19T00:22:34.084Z,101012.25
2023-02-19T00:25:01.851Z,101019.28
2023-02-19T00:27:29.680Z,101017.28
2023-02-19T00:29:57.407Z,101017.97
2023-02-19T00:32:25.268Z,101013.44
2023-02-19T00:34:55.369Z,101022.34
2023-02-19T00:37:23.130Z,101029.38
2023-02-19T00:39:50.973Z,101029.38
2023-02-19T00:42:18.765Z,101030.38
2023-02-19T00:44:46.546Z,101029.38
2023-02-19T00:47:14.324Z,101033.91
2023-02-19T00:49:42.080Z,101039.25
2023-02-19T00:52:09.866Z,101033.06
2023-02-19T00:54:37.597Z,101040.94
2023-02-19T00:57:07.392Z,101041.78
2023-02-19T00:59:38.233Z,101036.44
2023-02-19T01:02:05.954Z,101038.09
2023-02-19T01:04:33.769Z,101038.09
2023-02-19T01:07:01.678Z,101033.56
2023-02-19T01:09:29.410Z,101040.63
2023-02-19T01:11:57.262Z,101043.13
2023-02-19T01:14:25.035Z,101041.31
2023-02-19T01:16:52.941Z,101047.38
2023-02-19T01:19:20.769Z,101037.50
2023-02-19T01:21:48.549Z,101044.50
2023-02-19T01:24:17.642Z,101047.88
2023-02-19T01:26:45.677Z,101057.63
2023-02-19T01:29:13.450Z,101048.72
2023-02-19T01:31:43.080Z,101054.06
2023-02-19T01:34:10.922Z,101055.78
2023-02-19T01:36:38.844Z,101054.94
2023-02-19T01:39:06.686Z,101055.78
2023-02-19T01:41:34.576Z,101061.97
2023-02-19T01:44:02.453Z,101060.28
2023-02-19T01:46:30.322Z,101061.97
2023-02-19T01:48:58.319Z,101067.31
2023-02-19T01:51:29.165Z,101069.16
2023-02-19T01:53:59.858Z,101073.69
2023-02-19T01:56:29.378Z,101072.00
2023-02-19T01:58:57.234Z,101074.38
2023-02-19T02:01:25.069Z,101075.22
2023-02-19T02:03:53.140Z,101085.94
2023-02-19T02:06:20.876Z,101075.22
2023-02-19T02:09:07.049Z,101088.47
2023-02-19T02:11:34.804Z,101086.78
2023-02-19T02:14:02.547Z,101089.44
2023-02-19T02:16:30.410Z,101093.81
2023-02-19T02:18:58.264Z,101095.50
2023-02-19T02:21:26.019Z,101100.84
2023-02-19T02:23:53.867Z,101103.53
2023-02-19T02:26:21.626Z,101115.94
2023-02-19T02:28:49.461Z,101113.25
2023-02-19T02:31:17.448Z,101109.91
2023-02-19T02:33:45.278Z,101110.75
2023-02-19T02:36:13.084Z,101111.72
2023-02-19T02:38:40.982Z,101111.91
2023-02-19T02:41:09.118Z,101109.34
2023-02-19T02:43:37.118Z,101114.72
2023-02-19T02:46:04.906Z,101107.66
2023-02-19T02:48:32.686Z,101097.13
2023-02-19T02:51:00.416Z,101109.69
2023-02-19T02:53:46.739Z,101106.13
2023-02-19T02:56:14.518Z,101109.69
2023-02-19T02:58:42.345Z,101110.50
2023-02-19T03:01:28.642Z,101102.47
2023-02-19T03:03:56.404Z,101107.84
2023-02-19T03:06:24.163Z,101099.78
2023-02-19T03:08:54.372Z,101105.16
2023-02-19T03:11:45.000Z,101105.16
2023-02-19T03:14:30.893Z,101106.13
2023-02-19T03:17:16.949Z,101090.22
2023-02-19T03:19:44.833Z,101099.09
2023-02-19T03:22:12.689Z,101091.22
2023-02-19T03:24:58.914Z,101086.88
2023-02-19T03:27:26.677Z,101086.00
2023-02-19T03:29:54.399Z,101084.47
2023-02-19T03:32:22.239Z,101076.63
2023-02-19T03:34:52.611Z,101077.59
2023-02-19T03:37:22.709Z,101061.66
2023-02-19T03:39:50.527Z,101057.16
2023-02-19T03:42:18.263Z,101055.47
2023-02-19T03:44:46.058Z,101052.94
2023-02-19T03:47:13.897Z,101046.75
2023-02-19T03:49:41.661Z,101041.56
2023-02-19T03:52:09.425Z,101035.34
2023-02-19T03:54:37.504Z,101033.69
2023-02-19T03:57:05.283Z,101033.81
2023-02-19T03:59:33.097Z,101022.41
2023-02-19T04:02:00.973Z,101024.41
2023-02-19T04:04:28.893Z,101008.50
2023-02-19T04:06:56.731Z,101018.53
2023-02-19T04:09:24.520Z,101012.31
2023-02-19T04:11:52.464Z,101009.81
2023-02-19T04:14:29.052Z,101007.28
2023-02-19T04:16:56.860Z,100995.72
2023-02-19T04:19:24.702Z,100994.03
2023-02-19T04:21:52.586Z,100985.16
2023-02-19T04:24:20.356Z,100984.34
2023-02-19T04:26:48.160Z,100977.28
2023-02-19T04:29:15.887Z,100979.97
2023-02-19T04:31:43.677Z,100977.28
2023-02-19T04:34:11.440Z,100970.94
2023-02-19T04:36:39.136Z,100970.94
2023-02-19T04:39:19.054Z,100961.91
2023-02-19T04:41:46.831Z,100962.75
2023-02-19T04:44:14.629Z,100959.22
2023-02-19T04:46:43.204Z,100953.72
2023-02-19T04:49:11.072Z,100949.19
2023-02-19T04:51:38.984Z,100943.00
2023-02-19T04:54:06.738Z,100934.16
2023-02-19T04:56:34.574Z,100936.00
2023-02-19T04:59:02.385Z,100920.91
2023-02-19T05:01:30.215Z,100920.91
2023-02-19T05:03:57.959Z,100916.56
2023-02-19T05:06:25.688Z,100925.56
2023-02-19T05:08:53.473Z,100903.31
2023-02-19T05:11:21.330Z,100904.97
2023-02-19T05:13:49.077Z,100903.31
2023-02-19T05:16:19.528Z,100907.84
2023-02-19T05:18:47.669Z,100896.25
2023-02-19T05:21:15.444Z,100890.06
2023-02-19T05:23:43.241Z,100890.91
2023-02-19T05:26:11.005Z,100884.72
2023-02-19T05:28:38.758Z,100878.53
2023-02-19T05:31:06.713Z,100876.69
2023-02-19T05:33:34.502Z,100870.50
2023-02-19T05:36:03.931Z,100857.94
2023-02-19T05:38:31.719Z,100857.09
2023-02-19T05:41:01.258Z,100851.06
2023-02-19T05:43:29.057Z,100845.72
2023-02-19T05:45:56.836Z,100844.06
2023-02-19T05:48:24.598Z,100846.72
2023-02-19T05:50:52.359Z,100833.34
2023-02-19T05:53:20.141Z,100833.34
2023-02-19T05:55:47.903Z,100828.97
2023-02-19T05:58:15.680Z,100823.59
2023-02-19T06:00:43.453Z,100825.31
2023-02-19T06:03:11.255Z,100812.91
2023-02-19T06:05:39.014Z,100814.59
2023-02-19T06:08:06.814Z,100787.88
2023-02-19T06:10:34.576Z,100793.31
2023-02-19T06:13:02.347Z,100796.00
2023-02-19T06:15:30.179Z,100785.28
2023-02-19T06:17:58.006Z,100768.41
2023-02-19T06:20:26.378Z,100766.72
2023-02-19T06:22:54.254Z,100760.47
2023-02-19T06:25:22.006Z,100748.94
2023-02-19T06:27:49.792Z,100742.75
2023-02-19T06:30:17.651Z,100736.53
2023-02-19T06:32:45.482Z,100729.53
2023-02-19T06:35:13.244Z,100732.19
2023-02-19T06:37:41.062Z,100723.34
2023-02-19T06:40:09.102Z,100717.13
2023-02-19T06:42:36.847Z,100710.78
2023-02-19T06:45:04.604Z,100701.06
2023-02-19T06:47:32.399Z,100693.03
2023-02-19T06:50:00.174Z,100690.34
2023-02-19T06:52:28.018Z,100689.53
2023-02-19T06:54:55.873Z,100677.97
2023-02-19T06:57:23.657Z,100677.16
2023-02-19T06:59:51.523Z,100588.59
2023-02-19T07:02:19.305Z,100663.91
2023-02-19T07:04:47.107Z,100651.53
2023-02-19T07:07:14.921Z,100647.84
2023-02-19T07:09:42.698Z,100646.19
2023-02-19T07:12:11.138Z,100640.84
2023-02-19T07:14:38.938Z,100635.50
2023-02-19T07:17:06.651Z,100630.13
2023-02-19T07:19:34.371Z,100624.78
2023-02-19T07:22:02.293Z,100622.09
2023-02-19T07:24:30.060Z,100606.88
2023-02-19T07:26:57.843Z,100609.38
2023-02-19T07:29:25.708Z,100595.34
2023-02-19T07:31:53.572Z,100603.38
2023-02-19T07:34:21.826Z,100599.00
2023-02-19T07:36:49.621Z,100591.97
2023-02-19T07:39:17.385Z,100591.97
2023-02-19T07:41:45.152Z,100581.44
2023-02-19T07:44:17.431Z,100590.28
2023-02-19T07:46:45.252Z,100578.91
2023-02-19T07:51:46.110Z,100573.56
2023-02-19T07:54:14.581Z,100570.88
2023-02-19T07:56:42.473Z,100571.88
2023-02-19T07:59:10.440Z,100565.84
2023-02-19T08:01:56.610Z,100564.16
2023-02-19T08:04:24.461Z,100555.47
2023-02-19T08:06:52.238Z,100555.78
2023-02-19T08:09:20.038Z,100553.28
2023-02-19T08:12:06.476Z,100551.78
2023-02-19T08:14:34.302Z,100543.88
2023-02-19T08:17:02.143Z,100544.06
2023-02-19T08:19:30.014Z,100543.25
2023-02-19T08:21:57.818Z,100536.19
2023-02-19T08:24:25.654Z,100536.34
2023-02-19T08:26:53.586Z,100534.69
2023-02-19T08:29:21.379Z,100540.03
2023-02-19T08:31:49.232Z,100534.84
2023-02-19T08:34:17.054Z,100534.03
2023-02-19T08:36:45.218Z,100534.03
2023-02-19T08:39:12.941Z,100537.53
2023-02-19T08:41:40.677Z,100536.69
2023-02-19T08:44:10.900Z,100536.69
2023-02-19T08:46:38.669Z,100531.34
2023-02-19T08:49:06.534Z,100530.50
2023-02-19T08:51:34.297Z,100529.66
2023-02-19T08:54:02.017Z,100535.00
2023-02-19T08:56:32.830Z,100535.00
2023-02-19T08:59:00.642Z,100533.34
2023-02-19T09:01:28.573Z,100532.50
2023-02-19T09:03:56.532Z,100529.00
2023-02-19T09:06:24.338Z,100526.31
2023-02-19T09:08:52.126Z,100525.66
2023-02-19T09:11:20.007Z,100526.63
2023-02-19T09:13:47.791Z,100521.44
2023-02-19T09:16:15.582Z,100526.13
2023-02-19T09:18:43.373Z,100526.97
2023-02-19T09:21:11.443Z,100520.94
2023-02-19T09:23:39.388Z,100516.56
2023-02-19T09:26:09.572Z,100519.25
2023-02-19T09:28:37.391Z,100517.59
2023-02-19T09:31:05.331Z,100517.59
2023-02-19T09:33:33.437Z,100512.38
2023-02-19T09:36:01.814Z,100517.75
2023-02-19T09:38:30.415Z,100521.25
2023-02-19T09:40:58.237Z,100519.59
2023-02-19T09:43:26.048Z,100520.41
2023-02-19T09:45:53.914Z,100516.75
2023-02-19T09:48:25.593Z,100516.56
2023-02-19T09:50:53.342Z,100515.75
2023-02-19T09:53:21.112Z,100516.56
2023-02-19T09:55:48.906Z,100511.22
2023-02-19T09:58:16.719Z,100517.44
2023-02-19T10:00:44.572Z,100510.41
2023-02-19T10:03:12.299Z,100521.91
2023-02-19T10:05:40.098Z,100521.91
2023-02-19T10:08:07.897Z,100514.09
2023-02-19T10:10:35.643Z,100520.25
2023-02-19T10:13:03.420Z,100520.25
2023-02-19T10:15:31.372Z,100518.56
2023-02-19T10:17:59.177Z,100517.59
2023-02-19T10:20:28.816Z,100516.91
2023-02-19T10:22:56.894Z,100519.59
2023-02-19T10:25:24.679Z,100516.06
2023-02-19T10:27:52.493Z,100518.91
2023-02-19T10:30:20.316Z,100514.56
2023-02-19T10:32:48.164Z,100521.72
2023-02-19T10:35:15.975Z,100522.75
2023-02-19T10:37:43.803Z,100529.06
2023-02-19T10:40:11.532Z,100529.94
2023-02-19T10:42:39.337Z,100526.25
2023-02-19T10:45:07.148Z,100535.28
2023-02-19T10:47:35.726Z,100529.94
2023-02-19T10:50:04.690Z,100546.00
2023-02-19T10:52:32.743Z,100547.81
2023-02-19T10:55:00.477Z,100543.47
2023-02-19T10:57:31.397Z,100542.63
2023-02-19T10:59:59.240Z,100542.44
2023-02-19T11:02:27.031Z,100550.31
2023-02-19T11:04:54.817Z,100553.69
2023-02-19T11:07:22.664Z,100553.69
2023-02-19T11:09:50.438Z,100556.34
2023-02-19T11:12:18.222Z,100563.41
2023-02-19T11:14:46.096Z,100559.03
2023-02-19T11:17:13.836Z,100568.91
2023-02-19T11:19:41.630Z,100563.69
2023-02-19T11:22:09.405Z,100564.53
2023-02-19T11:24:38.342Z,100571.56
2023-02-19T11:27:06.179Z,100574.25
2023-02-19T11:29:37.291Z,100576.09
2023-02-19T11:32:05.261Z,100577.06
2023-02-19T11:34:35.884Z,100580.75
2023-02-19T11:37:03.625Z,100582.56
2023-02-19T11:39:31.362Z,100587.09
2023-02-19T11:41:59.191Z,100583.44
2023-02-19T11:44:31.176Z,100592.44
2023-02-19T11:46:58.965Z,100598.63
2023-02-19T11:49:26.901Z,100600.31
2023-02-19T11:51:54.756Z,100599.47
2023-02-19T11:54:22.579Z,100601.16
2023-02-19T11:56:50.375Z,100601.16
2023-02-19T11:59:18.171Z,100611.84
2023-02-19T12:01:45.983Z,100611.00
2023-02-19T12:04:13.763Z,100617.19
2023-02-19T12:06:41.566Z,100619.03
2023-02-19T12:09:09.627Z,100615.19
2023-02-19T12:11:37.414Z,100617.19
2023-02-19T12:14:05.172Z,100621.56
2023-02-19T12:16:32.956Z,100629.59
2023-02-19T12:19:03.857Z,100633.91
2023-02-19T12:21:31.673Z,100637.44
2023-02-19T12:24:02.317Z,100631.25
2023-02-19T12:26:30.085Z,100642.97
2023-02-19T12:28:57.933Z,100639.41
2023-02-19T12:31:28.738Z,100635.09
2023-02-19T12:33:57.787Z,100640.59
2023-02-19T12:36:25.528Z,100644.09
2023-02-19T12:38:53.291Z,100650.44
2023-02-19T12:41:21.044Z,100645.09
2023-02-19T12:43:48.888Z,100657.47
2023-02-19T12:46:16.732Z,100659.31
2023-02-19T12:48:44.649Z,100661.84
2023-02-19T12:51:12.453Z,100660.00
2023-02-19T12:53:40.293Z,100662.50
2023-02-19T12:56:08.040Z,100675.75
2023-02-19T12:58:35.823Z,100676.56
2023-02-19T13:01:03.579Z,100680.09
2023-02-19T13:03:31.374Z,100686.25
2023-02-19T13:05:59.744Z,100684.41
2023-02-19T13:08:27.516Z,100687.09
2023-02-19T13:10:55.382Z,100688.09
2023-02-19T13:13:24.044Z,100696.81
2023-02-19T13:15:52.647Z,100696.81
2023-02-19T13:18:20.451Z,100691.47
2023-02-19T13:20:48.891Z,100703.00
2023-02-19T13:23:38.350Z,100704.69
2023-02-19T13:26:06.094Z,100713.56
2023-02-19T13:28:33.839Z,100712.53
2023-02-19T13:31:01.694Z,100717.75
2023-02-19T13:33:29.628Z,100726.59
2023-02-19T13:35:57.433Z,100728.28
2023-02-19T13:38:25.246Z,100729.97
2023-02-19T13:40:53.040Z,100728.13
2023-02-19T13:43:21.091Z,100733.31
2023-02-19T13:45:48.976Z,100729.81
2023-02-19T13:48:16.817Z,100729.97
2023-02-19T13:50:44.666Z,100737.00
2023-02-19T13:53:12.525Z,100733.66
2023-02-19T13:55:41.572Z,100739.81
2023-02-19T13:58:09.360Z,100740.66
2023-02-19T14:00:37.160Z,100747.03
2023-02-19T14:03:04.958Z,100746.84
2023-02-19T14:05:32.895Z,100746.00
2023-02-19T14:08:00.700Z,100755.06
2023-02-19T14:10:28.718Z,100760.41
2023-02-19T14:12:56.519Z,100760.41
2023-02-19T14:15:24.408Z,100772.91
2023-02-19T14:17:52.141Z,100780.78
2023-02-19T14:20:19.901Z,100777.13
2023-02-19T14:22:48.883Z,100788.66
2023-02-19T14:25:16.673Z,100790.19
2023-02-19T14:27:44.483Z,100787.50
2023-02-19T14:30:12.325Z,100783.81
2023-02-19T14:32:40.151Z,100793.56
2023-02-19T14:35:07.927Z,100796.22
2023-02-19T14:37:35.732Z,100800.56
2023-02-19T14:40:03.502Z,100802.28
2023-02-19T14:42:35.012Z,100807.63
2023-02-19T14:45:02.856Z,100803.94
2023-02-19T14:47:31.860Z,100806.47
2023-02-19T14:49:59.670Z,100816.34
2023-02-19T14:52:27.618Z,100808.31
2023-02-19T14:54:55.375Z,100809.97
2023-02-19T14:57:23.301Z,100816.34
2023-02-19T14:59:51.064Z,100819.00
2023-02-19T15:02:18.886Z,100815.50
2023-02-19T15:04:46.820Z,100810.16
2023-02-19T15:07:14.691Z,100818.00
2023-02-19T15:09:42.486Z,100816.19
2023-02-19T15:12:10.281Z,100810.97
2023-02-19T15:14:38.183Z,100817.84
2023-02-19T15:17:05.951Z,100809.00
2023-02-19T15:19:34.102Z,100812.50
2023-02-19T15:22:02.918Z,100824.88
2023-02-19T15:24:30.789Z,100817.69
2023-02-19T15:26:58.660Z,100814.03
2023-02-19T15:29:26.446Z,100820.19
2023-02-19T15:31:54.325Z,100818.53
2023-02-19T15:34:22.107Z,100819.38
2023-02-19T15:36:49.930Z,100824.88
2023-02-19T15:39:17.698Z,100832.06
2023-02-19T15:41:45.769Z,100833.06
2023-02-19T15:44:13.535Z,100840.09
2023-02-19T15:46:41.410Z,100837.75
2023-02-19T15:49:09.174Z,100832.38
2023-02-19T15:51:36.996Z,100827.03
2023-02-19T15:54:05.137Z,100836.03
2023-02-19T15:56:32.936Z,100839.72
2023-02-19T15:59:00.727Z,100837.19
2023-02-19T16:01:28.599Z,100833.00
2023-02-19T16:03:56.452Z,100831.34
2023-02-19T16:06:24.261Z,100840.19
2023-02-19T16:08:52.121Z,100832.31
2023-02-19T16:11:19.896Z,100835.00
2023-02-19T16:13:47.720Z,100839.50
2023-02-19T16:16:15.560Z,100839.66
2023-02-19T16:18:43.344Z,100839.66
2023-02-19T16:21:11.540Z,100833.47
2023-02-19T16:23:39.520Z,100827.28
2023-02-19T16:26:07.305Z,100827.97
2023-02-19T16:28:35.116Z,100827.97
2023-02-19T16:31:02.908Z,100823.44
2023-02-19T16:33:32.828Z,100821.59
2023-02-19T16:39:02.825Z,100825.97
2023-02-19T16:41:30.577Z,100826.81
2023-02-19T16:43:58.428Z,100824.16
2023-02-19T16:46:26.287Z,100826.63
2023-02-19T16:48:54.022Z,100828.34
2023-02-19T16:51:21.827Z,100821.97
2023-02-19T16:53:49.605Z,100816.63
2023-02-19T16:56:17.491Z,100821.69
2023-02-19T16:58:45.340Z,100812.66
2023-02-19T17:01:13.471Z,100806.31
2023-02-19T17:03:41.522Z,100805.47
2023-02-19T17:06:09.328Z,100807.28
2023-02-19T17:08:38.063Z,100808.16
2023-02-19T17:11:05.873Z,100794.94
2023-02-19T17:13:33.637Z,100797.59
2023-02-19T17:16:01.546Z,100792.41
2023-02-19T17:18:29.302Z,100794.25
2023-02-19T17:20:57.261Z,100790.72
2023-02-19T17:23:25.087Z,100795.91
2023-02-19T17:25:52.898Z,100794.09
2023-02-19T17:28:20.708Z,100801.25
2023-02-19T17:30:48.586Z,100793.22
2023-02-19T17:33:16.444Z,100790.56
2023-02-19T17:35:45.774Z,100791.41
2023-02-19T17:38:13.574Z,100789.56
2023-02-19T17:40:41.346Z,100792.25
2023-02-19T17:43:09.190Z,100795.75
2023-02-19T17:45:37.115Z,100789.56
2023-02-19T17:48:04.927Z,100787.72
2023-02-19T17:50:32.808Z,100782.38
2023-02-19T17:53:00.616Z,100778.88
2023-02-19T17:55:28.420Z,100780.53
2023-02-19T17:57:56.301Z,100776.03
2023-02-19T18:00:24.115Z,100777.72
2023-02-19T18:02:51.896Z,100750.53
2023-02-19T18:05:19.698Z,100770.22
2023-02-19T18:07:47.522Z,100770.22
2023-02-19T18:10:15.342Z,100768.22
2023-02-19T18:12:43.077Z,100761.88
2023-02-19T18:15:10.931Z,100757.34
2023-02-19T18:17:38.763Z,100758.03
2023-02-19T18:20:06.495Z,100758.84
2023-02-19T18:22:34.680Z,100753.50
2023-02-19T18:25:02.455Z,100756.19
2023-02-19T18:27:30.228Z,100752.81
2023-02-19T18:29:58.698Z,100748.47
2023-02-19T18:32:26.466Z,100740.47
2023-02-19T18:34:54.293Z,100747.81
2023-02-19T18:37:22.070Z,100742.44
2023-02-19T18:39:49.843Z,100735.44
2023-02-19T18:42:17.601Z,100740.94
2023-02-19T18:44:45.373Z,100731.06
2023-02-19T18:47:13.176Z,100729.41
2023-02-19T18:49:40.936Z,100730.38
2023-02-19T18:52:08.802Z,100733.88
2023-02-19T18:54:36.651Z,100732.06
